createdAt,value
2023-02-03T00:02:02.252Z,243.77
2023-02-03T00:04:39.918Z,253.03
2023-02-03T00:07:17.273Z,246.60
2023-02-03T00:09:52.761Z,272.57
2023-02-03T00:12:29.072Z,267.90
2023-02-03T00:15:05.643Z,272.30
2023-02-03T00:17:43.719Z,270.67
2023-02-03T00:20:22.851Z,282.03
2023-02-03T00:22:58.994Z,276.53
2023-02-03T00:25:34.510Z,270.53
2023-02-03T00:28:10.496Z,269.93
2023-02-03T00:30:46.055Z,264.80
2023-02-03T00:33:21.991Z,271.17
2023-02-03T00:36:01.883Z,271.50
2023-02-03T00:38:37.970Z,280.43
2023-02-03T00:41:18.007Z,276.83
2023-02-03T00:43:54.127Z,264.20
2023-02-03T00:46:30.409Z,271.07
2023-02-03T00:49:06.696Z,266.90
2023-02-03T00:51:48.552Z,249.17
2023-02-03T00:54:25.366Z,263.57
2023-02-03T00:57:02.307Z,263.40
2023-02-03T00:59:38.654Z,275.97
2023-02-03T01:02:15.953Z,264.20
2023-02-03T01:04:56.120Z,260.03
2023-02-03T01:07:36.970Z,258.40
2023-02-03T01:10:19.118Z,265.83
2023-02-03T01:12:55.433Z,251.10
2023-02-03T01:15:31.642Z,262.10
2023-02-03T01:18:09.791Z,264.00
2023-02-03T01:20:45.721Z,261.53
2023-02-03T01:23:24.384Z,257.20
2023-02-03T01:26:00.793Z,254.60
2023-02-03T01:28:37.347Z,260.03
2023-02-03T01:31:25.864Z,238.00
2023-02-03T01:34:06.655Z,250.17
2023-02-03T01:36:44.283Z,248.13
2023-02-03T01:39:27.499Z,250.53
2023-02-03T01:42:04.430Z,249.93
2023-02-03T01:44:53.105Z,256.57
2023-02-03T01:47:42.093Z,246.90
2023-02-03T01:50:24.227Z,251.60
2023-02-03T01:53:03.638Z,241.00
2023-02-03T01:55:45.069Z,248.13
2023-02-03T01:58:26.581Z,251.83
2023-02-03T02:01:03.613Z,249.80
2023-02-03T02:03:44.801Z,247.90
2023-02-03T02:06:25.330Z,253.97
2023-02-03T02:09:02.214Z,257.03
2023-02-03T02:11:49.371Z,259.70
2023-02-03T02:14:29.179Z,260.07
2023-02-03T02:17:18.807Z,258.60
2023-02-03T02:20:22.774Z,264.90
2023-02-03T02:23:28.791Z,252.50
2023-02-03T02:26:30.286Z,261.27
2023-02-03T02:29:41.526Z,259.27
2023-02-03T02:32:44.723Z,267.77
2023-02-03T02:35:32.302Z,263.43
2023-02-03T02:38:19.687Z,264.37
2023-02-03T02:41:06.248Z,264.83
2023-02-03T02:43:48.742Z,267.63
2023-02-03T02:46:36.462Z,261.00
2023-02-03T02:49:23.123Z,278.67
2023-02-03T02:52:04.793Z,264.67
2023-02-03T02:54:45.998Z,273.87
2023-02-03T02:57:31.675Z,279.47
2023-02-03T03:00:10.722Z,283.00
2023-02-03T03:02:48.182Z,288.80
2023-02-03T03:05:26.776Z,281.00
2023-02-03T03:08:08.604Z,273.73
2023-02-03T03:10:46.090Z,273.70
2023-02-03T03:13:30.416Z,269.27
2023-02-03T03:16:13.823Z,291.87
2023-02-03T03:18:54.026Z,285.53
2023-02-03T03:21:41.364Z,280.97
2023-02-03T03:24:21.305Z,274.77
2023-02-03T03:27:01.097Z,278.63
2023-02-03T03:29:41.639Z,273.77
2023-02-03T03:32:18.302Z,296.17
2023-02-03T03:34:56.612Z,290.43
2023-02-03T03:37:48.200Z,275.07
2023-02-03T03:40:35.247Z,286.53
2023-02-03T03:43:18.546Z,294.00
2023-02-03T03:46:09.050Z,302.97
2023-02-03T03:48:52.600Z,295.20
2023-02-03T03:51:35.433Z,308.30
2023-02-03T03:54:18.084Z,309.33
2023-02-03T03:57:03.220Z,320.30
2023-02-03T03:59:42.894Z,318.70
2023-02-03T04:02:26.417Z,317.83
2023-02-03T04:05:10.482Z,313.13
2023-02-03T04:07:51.677Z,312.80
2023-02-03T04:10:39.612Z,318.80
2023-02-03T04:13:17.591Z,315.97
2023-02-03T04:16:01.995Z,323.47
2023-02-03T04:18:41.374Z,315.93
2023-02-03T04:21:17.774Z,323.27
2023-02-03T04:23:54.012Z,317.30
2023-02-03T04:26:33.967Z,315.53
2023-02-03T04:29:11.104Z,314.53
2023-02-03T04:31:49.410Z,313.93
2023-02-03T04:34:26.350Z,326.83
2023-02-03T04:37:04.491Z,320.47
2023-02-03T04:39:42.480Z,324.80
2023-02-03T04:42:31.988Z,322.97
2023-02-03T04:45:12.486Z,309.50
2023-02-03T04:47:53.782Z,316.10
2023-02-03T04:50:34.979Z,319.50
2023-02-03T04:53:19.074Z,315.03
2023-02-03T04:55:55.254Z,321.40
2023-02-03T04:58:38.599Z,313.53
2023-02-03T05:01:16.472Z,297.17
2023-02-03T05:03:55.848Z,292.47
2023-02-03T05:06:35.435Z,285.63
2023-02-03T05:09:15.641Z,290.33
2023-02-03T05:11:55.151Z,300.23
2023-02-03T05:14:36.750Z,288.20
2023-02-03T05:17:14.632Z,289.53
2023-02-03T05:19:53.437Z,293.03
2023-02-03T05:22:31.236Z,295.57
2023-02-03T05:25:07.992Z,294.93
2023-02-03T05:27:46.441Z,280.20
2023-02-03T05:30:26.847Z,287.43
2023-02-03T05:33:03.938Z,295.07
2023-02-03T05:35:40.405Z,295.53
2023-02-03T05:38:16.870Z,288.17
2023-02-03T05:41:10.730Z,281.63
2023-02-03T05:43:48.042Z,274.90
2023-02-03T05:46:27.213Z,283.30
2023-02-03T05:49:09.305Z,292.67
2023-02-03T05:51:49.874Z,284.00
2023-02-03T05:54:27.408Z,285.33
2023-02-03T05:57:20.074Z,264.10
2023-02-03T05:59:57.805Z,276.40
2023-02-03T06:02:39.697Z,271.67
2023-02-03T06:05:16.741Z,271.60
2023-02-03T06:07:53.212Z,266.07
2023-02-03T06:10:30.124Z,268.07
2023-02-03T06:13:15.778Z,292.47
2023-02-03T06:15:51.647Z,298.47
2023-02-03T06:18:34.713Z,286.77
2023-02-03T06:21:12.994Z,286.83
2023-02-03T06:23:50.865Z,300.40
2023-02-03T06:26:26.937Z,290.43
2023-02-03T06:29:05.780Z,278.20
2023-02-03T06:31:46.813Z,283.93
2023-02-03T06:34:30.580Z,267.23
2023-02-03T06:37:07.231Z,286.73
2023-02-03T06:39:43.418Z,292.97
2023-02-03T06:42:22.764Z,285.10
2023-02-03T06:45:08.610Z,294.67
2023-02-03T06:47:52.383Z,287.73
2023-02-03T06:50:35.173Z,286.43
2023-02-03T06:53:15.641Z,276.13
2023-02-03T06:56:03.882Z,284.60
2023-02-03T06:58:46.977Z,277.70
2023-02-03T07:01:27.433Z,283.97
2023-02-03T07:04:09.335Z,279.27
2023-02-03T07:07:03.247Z,270.47
2023-02-03T07:09:41.349Z,278.87
2023-02-03T07:12:19.366Z,275.07
2023-02-03T07:15:01.938Z,266.73
2023-02-03T07:17:40.016Z,267.83
2023-02-03T07:20:17.115Z,281.90
2023-02-03T07:23:00.619Z,277.23
2023-02-03T07:25:42.545Z,278.77
2023-02-03T07:28:24.232Z,290.17
2023-02-03T07:31:06.154Z,299.47
2023-02-03T07:33:47.257Z,267.67
2023-02-03T07:36:24.472Z,291.17
2023-02-03T07:39:07.614Z,282.87
2023-02-03T07:41:45.652Z,276.40
2023-02-03T07:44:23.008Z,265.13
2023-02-03T07:46:59.359Z,283.57
2023-02-03T07:49:42.115Z,266.47
2023-02-03T07:52:21.732Z,268.30
2023-02-03T07:55:02.106Z,268.67
2023-02-03T07:57:41.004Z,268.40
2023-02-03T08:00:21.085Z,275.27
2023-02-03T08:02:59.991Z,275.43
2023-02-03T08:05:37.701Z,276.33
2023-02-03T08:08:15.888Z,279.63
2023-02-03T08:11:01.954Z,269.40
2023-02-03T08:13:42.645Z,267.33
2023-02-03T08:16:19.283Z,262.90
2023-02-03T08:18:56.524Z,258.53
2023-02-03T08:21:37.827Z,268.00
2023-02-03T08:24:19.082Z,261.40
2023-02-03T08:26:58.285Z,267.27
2023-02-03T08:29:34.564Z,264.77
2023-02-03T08:32:29.763Z,268.63
2023-02-03T08:35:07.184Z,255.73
2023-02-03T08:37:43.554Z,291.20
2023-02-03T08:40:20.731Z,299.40
2023-02-03T08:42:59.659Z,306.60
2023-02-03T08:45:36.118Z,302.37
2023-02-03T08:48:20.580Z,310.13
2023-02-03T08:51:00.396Z,287.83
2023-02-03T08:53:38.128Z,301.07
2023-02-03T08:56:18.805Z,306.77
2023-02-03T08:58:59.161Z,306.27
2023-02-03T09:01:38.750Z,302.03
2023-02-03T09:04:20.617Z,315.93
2023-02-03T09:06:58.195Z,315.50
2023-02-03T09:09:38.050Z,311.97
2023-02-03T09:12:18.209Z,321.83
2023-02-03T09:14:59.935Z,314.70
2023-02-03T09:17:36.581Z,305.07
2023-02-03T09:20:15.054Z,306.00
2023-02-03T09:22:53.632Z,305.33
2023-02-03T09:25:29.923Z,315.00
2023-02-03T09:28:09.361Z,326.77
2023-02-03T09:30:49.620Z,307.50
2023-02-03T09:33:28.482Z,327.50
2023-02-03T09:36:05.459Z,321.10
2023-02-03T09:38:43.067Z,321.47
2023-02-03T09:42:01.331Z,316.93
2023-02-03T09:44:45.699Z,326.73
2023-02-03T09:47:29.868Z,315.97
2023-02-03T09:50:11.769Z,315.43
2023-02-03T09:52:49.521Z,321.67
2023-02-03T09:55:39.091Z,325.60
2023-02-03T09:58:22.745Z,332.80
2023-02-03T10:01:01.051Z,324.43
2023-02-03T10:03:48.035Z,321.93
2023-02-03T10:06:34.154Z,309.90
2023-02-03T10:09:28.617Z,325.57
2023-02-03T10:12:43.661Z,324.07
2023-02-03T10:15:52.151Z,325.70
2023-02-03T10:18:31.750Z,312.10
2023-02-03T10:21:23.770Z,314.13
2023-02-03T10:24:05.729Z,308.43
2023-02-03T10:26:56.351Z,319.67
2023-02-03T10:29:41.089Z,308.70
2023-02-03T10:32:20.857Z,292.13
2023-02-03T10:34:59.306Z,276.77
2023-02-03T10:38:05.734Z,279.80
2023-02-03T10:40:44.481Z,277.33
2023-02-03T10:43:39.026Z,275.73
2023-02-03T10:46:14.895Z,269.13
2023-02-03T10:49:13.186Z,260.57
2023-02-03T10:52:03.879Z,263.50
2023-02-03T10:54:45.695Z,263.80
2023-02-03T10:57:22.746Z,265.23
2023-02-03T11:00:12.166Z,257.53
2023-02-03T11:02:51.688Z,268.43
2023-02-03T11:05:46.877Z,260.20
2023-02-03T11:08:44.111Z,267.73
2023-02-03T11:11:32.655Z,272.23
2023-02-03T11:14:21.541Z,278.00
2023-02-03T11:16:59.177Z,277.47
2023-02-03T11:19:34.953Z,260.30
2023-02-03T11:22:11.673Z,271.33
2023-02-03T11:24:54.329Z,265.70
2023-02-03T11:27:34.518Z,271.93
2023-02-03T11:30:35.600Z,270.63
2023-02-03T11:33:27.555Z,274.10
2023-02-03T11:36:06.783Z,275.57
2023-02-03T11:38:50.105Z,281.40
2023-02-03T11:41:27.624Z,266.57
2023-02-03T11:44:22.072Z,278.50
2023-02-03T11:47:01.121Z,289.87
2023-02-03T11:50:05.920Z,286.90
2023-02-03T11:53:25.460Z,284.40
2023-02-03T11:56:22.189Z,292.00
2023-02-03T11:59:33.220Z,301.37
2023-02-03T12:03:00.825Z,305.73
2023-02-03T12:06:09.122Z,302.57
2023-02-03T12:09:04.593Z,299.93
2023-02-03T12:11:58.962Z,307.40
2023-02-03T12:14:58.599Z,311.73
2023-02-03T12:18:06.399Z,307.83
2023-02-03T12:21:01.484Z,309.07
2023-02-03T12:23:49.774Z,325.83
2023-02-03T12:26:35.542Z,309.20
2023-02-03T12:29:18.962Z,315.70
2023-02-03T12:32:11.479Z,322.77
2023-02-03T12:35:05.936Z,322.40
2023-02-03T12:37:51.626Z,327.97
2023-02-03T12:40:35.545Z,318.83
2023-02-03T12:43:33.229Z,327.90
2023-02-03T12:46:16.208Z,314.43
2023-02-03T12:49:13.536Z,329.57
2023-02-03T12:51:52.629Z,318.53
2023-02-03T12:54:42.270Z,307.33
2023-02-03T12:57:33.275Z,319.50
2023-02-03T13:00:23.252Z,333.20
2023-02-03T13:03:25.489Z,314.13
2023-02-03T13:06:27.459Z,323.70
2023-02-03T13:09:13.899Z,325.23
2023-02-03T13:12:02.014Z,319.87
2023-02-03T13:14:45.059Z,315.20
2023-02-03T13:17:28.195Z,321.03
2023-02-03T13:20:10.410Z,321.00
2023-02-03T13:23:01.705Z,311.97
2023-02-03T13:25:55.105Z,318.50
2023-02-03T13:28:57.962Z,318.47
2023-02-03T13:31:55.671Z,308.00
2023-02-03T13:35:03.821Z,327.67
2023-02-03T13:38:13.532Z,317.07
2023-02-03T13:41:02.583Z,305.33
2023-02-03T13:43:46.847Z,315.63
2023-02-03T13:46:37.085Z,319.43
2023-02-03T13:49:23.660Z,316.53
2023-02-03T13:52:07.916Z,320.47
2023-02-03T13:55:00.147Z,324.90
2023-02-03T13:57:47.522Z,305.73
2023-02-03T14:01:06.316Z,318.10
2023-02-03T14:03:56.581Z,317.60
2023-02-03T14:07:12.447Z,329.07
2023-02-03T14:10:34.831Z,327.53
2023-02-03T14:13:26.787Z,320.77
2023-02-03T14:16:30.921Z,325.53
2023-02-03T14:19:09.792Z,321.70
2023-02-03T14:21:52.646Z,325.73
2023-02-03T14:24:34.346Z,325.30
2023-02-03T14:27:20.410Z,319.23
2023-02-03T14:30:43.872Z,326.43
2023-02-03T14:33:27.423Z,335.57
2023-02-03T14:36:10.245Z,334.37
2023-02-03T14:38:51.314Z,325.07
2023-02-03T14:41:32.626Z,330.60
2023-02-03T14:44:30.208Z,335.63
2023-02-03T14:47:37.654Z,335.63
2023-02-03T14:50:37.729Z,340.97
2023-02-03T14:53:39.897Z,333.53
2023-02-03T14:56:53.701Z,338.57
2023-02-03T14:59:48.968Z,335.53
2023-02-03T15:02:33.590Z,339.77
2023-02-03T15:05:44.937Z,339.57
2023-02-03T15:08:42.005Z,325.43
2023-02-03T15:11:35.687Z,329.57
2023-02-03T15:14:41.431Z,330.27
2023-02-03T15:17:30.380Z,334.80
2023-02-03T15:20:43.505Z,351.67
2023-02-03T15:23:32.966Z,350.23
2023-02-03T15:26:25.518Z,345.23
2023-02-03T15:29:10.620Z,338.37
2023-02-03T15:31:54.130Z,350.53
2023-02-03T15:34:34.173Z,359.50
2023-02-03T15:37:25.033Z,359.53
2023-02-03T15:40:25.873Z,344.30
2023-02-03T15:43:27.578Z,343.37
2023-02-03T15:46:46.793Z,344.20
2023-02-03T15:49:35.801Z,352.67
2023-02-03T15:52:22.963Z,348.70
2023-02-03T15:55:06.587Z,344.93
2023-02-03T15:57:44.258Z,357.73
2023-02-03T16:00:41.870Z,352.23
2023-02-03T16:03:24.170Z,357.87
2023-02-03T16:06:02.225Z,348.30
2023-02-03T16:08:50.456Z,340.27
2023-02-03T16:11:41.291Z,361.47
2023-02-03T16:14:55.035Z,336.93
2023-02-03T16:18:09.206Z,345.57
2023-02-03T16:21:08.777Z,333.10
2023-02-03T16:24:10.189Z,324.77
2023-02-03T16:26:45.952Z,341.83
2023-02-03T16:29:42.704Z,335.20
2023-02-03T16:32:40.428Z,338.20
2023-02-03T16:35:33.735Z,328.47
2023-02-03T16:38:37.708Z,338.83
2023-02-03T16:41:37.094Z,336.93
2023-02-03T16:44:31.353Z,337.33
2023-02-03T16:47:29.211Z,333.70
2023-02-03T16:50:37.406Z,335.20
2023-02-03T16:53:39.398Z,329.23
2023-02-03T16:56:20.331Z,316.77
2023-02-03T16:58:56.363Z,326.90
2023-02-03T17:01:32.575Z,320.23
2023-02-03T17:04:38.771Z,324.87
2023-02-03T17:07:16.449Z,324.50
2023-02-03T17:09:55.896Z,326.40
2023-02-03T17:12:37.372Z,324.07
2023-02-03T17:15:20.252Z,318.40
2023-02-03T17:18:03.969Z,328.37
2023-02-03T17:20:44.818Z,338.23
2023-02-03T17:23:24.608Z,325.30
2023-02-03T17:26:00.808Z,325.67
2023-02-03T17:29:00.020Z,325.50
2023-02-03T17:31:38.156Z,329.10
2023-02-03T17:34:15.437Z,327.67
2023-02-03T17:36:55.397Z,333.33
2023-02-03T17:54:32.872Z,339.20
2023-02-03T17:57:10.893Z,331.23
2023-02-03T17:59:56.870Z,327.20
2023-02-03T18:02:35.350Z,326.80
2023-02-03T18:05:15.679Z,338.43
2023-02-03T18:07:51.672Z,327.60
2023-02-03T18:10:28.086Z,331.17
2023-02-03T18:13:07.229Z,334.10
2023-02-03T18:15:44.751Z,328.30
2023-02-03T18:18:23.382Z,325.23
2023-02-03T18:20:58.681Z,336.10
2023-02-03T18:23:41.204Z,337.17
2023-02-03T18:26:18.675Z,335.20
2023-02-03T18:28:59.352Z,335.10
2023-02-03T18:31:34.857Z,340.33
2023-02-03T18:34:13.318Z,335.70
2023-02-03T18:36:49.255Z,344.20
2023-02-03T18:39:25.255Z,340.93
2023-02-03T18:42:05.950Z,345.10
2023-02-03T18:44:45.791Z,348.93
2023-02-03T18:47:21.832Z,349.20
2023-02-03T18:49:59.271Z,345.57
2023-02-03T18:52:43.972Z,346.37
2023-02-03T18:55:36.285Z,344.17
2023-02-03T18:58:11.834Z,343.97
2023-02-03T19:00:48.735Z,322.70
2023-02-03T19:03:26.246Z,332.17
2023-02-03T19:06:05.442Z,332.63
2023-02-03T19:08:49.490Z,324.47
2023-02-03T19:11:26.779Z,332.10
2023-02-03T19:14:01.581Z,330.60
2023-02-03T19:16:36.842Z,330.97
2023-02-03T19:19:17.107Z,339.43
2023-02-03T19:22:10.555Z,320.57
2023-02-03T19:24:45.727Z,330.50
2023-02-03T19:27:20.350Z,318.80
2023-02-03T19:29:54.737Z,319.23
2023-02-03T19:32:36.331Z,318.17
2023-02-03T19:35:14.654Z,313.60
2023-02-03T19:37:55.878Z,318.17
2023-02-03T19:40:30.404Z,315.13
2023-02-03T19:43:05.227Z,320.53
2023-02-03T19:45:48.182Z,318.67
2023-02-03T19:48:29.441Z,320.83
2023-02-03T19:51:03.839Z,314.83
2023-02-03T19:53:39.587Z,313.03
2023-02-03T19:56:14.728Z,312.60
2023-02-03T19:58:58.184Z,328.53
2023-02-03T20:01:32.541Z,321.50
2023-02-03T20:04:09.048Z,321.30
2023-02-03T20:06:44.633Z,311.33
2023-02-03T20:09:21.782Z,308.33
2023-02-03T20:11:57.491Z,318.17
2023-02-03T20:14:31.807Z,321.33
2023-02-03T20:17:07.252Z,325.03
2023-02-03T20:19:41.643Z,306.60
2023-02-03T20:22:15.753Z,313.20
2023-02-03T20:24:52.636Z,321.13
2023-02-03T20:27:27.519Z,318.80
2023-02-03T20:30:02.597Z,326.77
2023-02-03T20:32:36.628Z,321.10
2023-02-03T20:35:11.877Z,304.90
2023-02-03T20:37:46.572Z,309.03
2023-02-03T20:40:25.549Z,307.43
2023-02-03T20:43:04.452Z,315.50
2023-02-03T20:45:39.529Z,309.73
2023-02-03T20:48:16.231Z,318.70
2023-02-03T20:50:51.585Z,297.27
2023-02-03T20:53:27.053Z,309.97
2023-02-03T20:56:04.116Z,320.73
2023-02-03T20:58:39.942Z,306.10
2023-02-03T21:01:17.985Z,310.17
2023-02-03T21:04:12.606Z,313.17
2023-02-03T21:07:02.029Z,305.07
2023-02-03T21:09:37.544Z,310.07
2023-02-03T21:12:16.169Z,313.30
2023-02-03T21:14:51.268Z,305.53
2023-02-03T21:17:27.400Z,311.60
2023-02-03T21:20:07.076Z,302.40
2023-02-03T21:22:41.130Z,298.10
2023-02-03T21:25:30.736Z,310.50
2023-02-03T21:28:06.422Z,318.00
2023-02-03T21:30:39.691Z,314.97
2023-02-03T21:33:38.955Z,318.33
2023-02-03T21:36:20.115Z,310.17
2023-02-03T21:38:55.757Z,301.97
2023-02-03T21:41:30.148Z,316.43
2023-02-03T21:44:04.664Z,320.00
2023-02-03T21:46:38.078Z,296.00
2023-02-03T21:49:15.279Z,302.40
2023-02-03T21:51:48.260Z,319.80
2023-02-03T21:54:34.952Z,312.93
2023-02-03T21:57:08.479Z,299.87
2023-02-03T21:59:47.951Z,303.90
2023-02-03T22:03:03.005Z,313.13
2023-02-03T22:05:57.960Z,316.63
2023-02-03T22:08:32.271Z,308.47
2023-02-03T22:11:06.231Z,315.03
2023-02-03T22:13:40.836Z,310.10
2023-02-03T22:16:25.147Z,304.67
2023-02-03T22:18:59.017Z,297.90
2023-02-03T22:21:32.284Z,316.67
2023-02-03T22:24:05.466Z,324.43
2023-02-03T22:26:45.418Z,317.47
2023-02-03T22:29:24.996Z,309.57
2023-02-03T22:32:01.100Z,312.87
2023-02-03T22:34:35.089Z,318.20
2023-02-03T22:37:08.703Z,313.40
2023-02-03T22:39:48.787Z,325.37
2023-02-03T22:42:23.566Z,303.03
2023-02-03T22:44:57.145Z,320.23
2023-02-03T22:47:32.581Z,312.33
2023-02-03T22:50:06.380Z,324.07
2023-02-03T22:52:58.341Z,325.67
2023-02-03T22:55:31.851Z,314.43
2023-02-03T22:58:05.248Z,305.60
2023-02-03T23:00:38.600Z,320.00
2023-02-03T23:03:13.755Z,325.63
2023-02-03T23:06:11.624Z,328.23
2023-02-03T23:08:46.570Z,322.10
2023-02-03T23:11:20.697Z,332.77
2023-02-03T23:13:55.035Z,331.20
2023-02-03T23:16:28.913Z,327.07
2023-02-03T23:19:04.449Z,328.83
2023-02-03T23:21:51.879Z,328.17
2023-02-03T23:24:25.869Z,336.17
2023-02-03T23:26:59.688Z,343.10
2023-02-03T23:29:34.808Z,339.50
2023-02-03T23:32:25.535Z,340.50
2023-02-03T23:35:40.735Z,332.77
2023-02-03T23:38:21.881Z,332.53
2023-02-03T23:40:57.511Z,338.03
2023-02-03T23:43:32.380Z,351.00
2023-02-03T23:46:06.141Z,346.70
2023-02-03T23:48:48.784Z,339.77
2023-02-03T23:51:25.886Z,349.70
2023-02-03T23:54:06.182Z,353.73
2023-02-03T23:56:41.527Z,349.13
2023-02-03T23:59:16.614Z,352.97
